Decoded Metar for CYXY (WHITEHORSE in YT, CANADA) (IATA:YXY) | Meteo·Mobile Aviation Weather
aviador You're here:

CYXY Decoded Metar

WHITEHORSE in YT, CANADA
Report Time2019-03-23 16:00:00
UTC Time2019-03-23 16:23:19
Flight Rules vfr VFR
WindVRB at 02 kt
Visibility9999 m
Phenomena:N/A
Clouds:Few 150 Hf
Broken 200 Hf
Expected CloudBase > 800 ft AGL from Temp-Dew spread
Ceiling20,000 ft
Temp00°C (ISA -10)
Dew Point-2°C (87% RH)
AAT-3.0°C
QNH1008 hPa
Density Alt1,293 ft
Elevation2,306 ft
Report Wrong Elevation
Raw Report
CYXY 231600Z VRB02KT 40SM FEW150 BKN200 00/M02 A2977 RMK AC1CI5
SLP114=

Extra information for CYXY:More info

Metar Taf Metar & Taf Last 4 Metars F.Rules Stats Wind Profile Meteogram Temp Stats Airport Information Weather charts Add Link Nearby VenuesMetar ALERT Operation Metar Decoded Social comments